Time;durP1;ratioP1;P1;durP2;ratioP2;P2;SDS_P1;SDS_P2;PMS_P1;PMS_P2;Temp;Humidity;BMP_temperature;BMP_pressure;BME280_temperature;BME280_humidity;BME280_pressure;Samples;Min_cycle;Max_cycle;Signal;HPM_P1;HPM_P2
2022/02/18 00:01:38;;;;;;;;;;;;;;;13.39;61.73;100760.09;145002;922;1018;-82
2022/02/18 00:04:05;;;;;;;;;;;;;;;13.42;61.62;100765.38;145001;614;2000;-84
2022/02/18 00:06:31;;;;;;;;;;;;;;;13.41;61.40;100754.06;145002;922;1021;-85
2022/02/18 00:08:57;;;;;;;;;;;;;;;13.38;60.97;100755.75;145002;923;1017;-84
2022/02/18 00:11:23;;;;;;;;;;;;;;;13.34;61.11;100743.50;145001;923;2000;-83
2022/02/18 00:13:49;;;;;;;;;;;;;;;13.27;61.19;100750.28;145002;923;1020;-85
2022/02/18 00:16:18;;;;;;;;;;;;;;;13.22;61.14;100745.00;145002;923;1019;-86
2022/02/18 00:18:45;;;;;;;;;;;;;;;13.18;60.96;100742.28;145002;923;1017;-84
2022/02/18 00:21:13;;;;;;;;;;;;;;;12.97;61.24;100761.84;145002;925;1018;-85
2022/02/18 00:23:39;;;;;;;;;;;;;;;13.00;61.50;100753.25;145002;923;1017;-84
2022/02/18 00:26:05;;;;;;;;;;;;;;;12.95;61.52;100766.16;145002;919;1019;-84
2022/02/18 00:28:31;;;;;;;;;;;;;;;12.78;61.96;100760.59;145002;923;1019;-84
2022/02/18 00:30:57;;;;;;;;;;;;;;;12.76;62.13;100771.81;145002;923;1020;-85
2022/02/18 00:33:24;;;;;;;;;;;;;;;12.70;61.97;100768.22;145002;924;1017;-84
2022/02/18 00:35:51;;;;;;;;;;;;;;;12.64;62.15;100769.84;145002;924;1020;-85
2022/02/18 00:38:17;;;;;;;;;;;;;;;12.61;62.11;100762.81;145002;923;1020;-86
2022/02/18 00:40:45;;;;;;;;;;;;;;;12.63;62.05;100770.66;145002;919;1017;-85
2022/02/18 00:43:11;;;;;;;;;;;;;;;12.63;61.71;100766.34;145002;924;1023;-85
2022/02/18 00:45:38;;;;;;;;;;;;;;;12.60;61.90;100758.47;145002;923;1019;-85
2022/02/18 00:48:04;;;;;;;;;;;;;;;12.60;62.00;100762.78;145002;919;1020;-83
2022/02/18 00:50:30;;;;;;;;;;;;;;;12.59;61.91;100768.84;145002;924;1021;-85
2022/02/18 00:52:56;;;;;;;;;;;;;;;12.58;61.67;100756.66;145002;923;1019;-84
2022/02/18 00:55:22;;;;;;;;;;;;;;;12.56;61.63;100759.25;145002;919;1017;-83
2022/02/18 00:57:49;;;;;;;;;;;;;;;12.54;61.98;100762.69;145002;924;1022;-85
2022/02/18 01:00:16;;;;;;;;;;;;;;;12.39;62.79;100769.28;145002;923;1020;-84
2022/02/18 01:02:42;;;;;;;;;;;;;;;12.40;62.22;100771.03;145002;923;1019;-85
2022/02/18 01:05:09;;;;;;;;;;;;;;;12.44;61.95;100767.66;145002;924;1020;-82
2022/02/18 01:07:35;;;;;;;;;;;;;;;12.46;62.03;100762.50;145002;923;1022;-85
2022/02/18 01:10:03;;;;;;;;;;;;;;;12.48;61.97;100759.06;145002;923;1016;-85
2022/02/18 01:12:29;;;;;;;;;;;;;;;12.46;62.02;100752.09;145002;923;1022;-83
2022/02/18 01:14:58;;;;;;;;;;;;;;;12.49;62.23;100749.56;145002;919;1017;-86
2022/02/18 01:17:24;;;;;;;;;;;;;;;12.51;61.91;100743.50;145002;923;1019;-87
2022/02/18 01:19:50;;;;;;;;;;;;;;;12.54;61.66;100742.72;145002;923;1021;-83
2022/02/18 01:22:16;;;;;;;;;;;;;;;12.55;61.58;100734.06;145002;923;1017;-85
2022/02/18 01:24:42;;;;;;;;;;;;;;;12.57;61.42;100721.09;145002;923;1016;-85
2022/02/18 01:27:08;;;;;;;;;;;;;;;12.55;61.16;100721.03;145002;924;1017;-84
2022/02/18 01:29:39;;;;;;;;;;;;;;;12.54;60.78;100737.50;145002;923;1021;-85
2022/02/18 01:32:09;;;;;;;;;;;;;;;12.52;61.14;100745.28;145002;923;1017;-81
2022/02/18 01:34:38;;;;;;;;;;;;;;;12.51;61.27;100748.72;145002;923;1018;-84
2022/02/18 01:37:06;;;;;;;;;;;;;;;12.55;61.37;100749.69;145002;923;1016;-81
2022/02/18 01:39:32;;;;;;;;;;;;;;;12.54;61.62;100758.34;145002;923;1020;-84
2022/02/18 01:42:00;;;;;;;;;;;;;;;12.59;61.44;100751.50;145002;923;1019;-84
2022/02/18 01:44:34;;;;;;;;;;;;;;;12.61;61.12;100744.59;145002;923;1017;-85
2022/02/18 01:47:19;;;;;;;;;;;;;;;;;;;;;
2022/02/18 01:49:58;;;;;;;;;;;;;;;12.73;61.28;100744.00;145002;921;1019;-85
2022/02/18 01:52:29;;;;;;;;;;;;;;;12.79;60.94;100744.12;145002;595;1418;-85
2022/02/18 01:54:56;;;;;;;;;;;;;;;12.86;60.72;100735.56;145002;922;1016;-85
2022/02/18 01:57:24;;;;;;;;;;;;;;;12.87;60.25;100724.31;145002;923;1021;-84
2022/02/18 01:59:50;;;;;;;;;;;;;;;12.85;60.13;100718.22;145002;923;1017;-87
2022/02/18 02:02:16;;;;;;;;;;;;;;;12.84;60.06;100705.16;145002;922;1019;-83
2022/02/18 02:04:44;;;;;;;;;;;;;;;12.80;59.77;100721.53;145002;919;1018;-84
2022/02/18 02:07:10;;;;;;;;;;;;;;;12.72;60.04;100724.00;145002;922;1019;-85
2022/02/18 02:09:36;;;;;;;;;;;;;;;12.63;60.20;100715.97;145002;918;1019;-85
2022/02/18 02:12:03;;;;;;;;;;;;;;;12.43;60.63;100713.81;145002;923;1020;-85
2022/02/18 02:14:30;;;;;;;;;;;;;;;12.45;60.41;100712.13;145002;922;1018;-84
2022/02/18 02:16:56;;;;;;;;;;;;;;;12.40;60.78;100703.34;145002;922;1018;-85
2022/02/18 02:19:22;;;;;;;;;;;;;;;12.38;60.90;100701.56;145002;923;1017;-85
2022/02/18 02:21:50;;;;;;;;;;;;;;;12.37;60.78;100703.28;145002;918;1019;-84
2022/02/18 02:24:15;;;;;;;;;;;;;;;12.38;60.84;100701.56;145002;922;1023;-86
2022/02/18 02:26:43;;;;;;;;;;;;;;;12.34;60.82;100706.72;145002;919;1018;-85
2022/02/18 02:29:12;;;;;;;;;;;;;;;12.32;60.89;100705.78;145002;922;1018;-84
2022/02/18 02:31:39;;;;;;;;;;;;;;;12.32;60.80;100716.19;145002;922;1019;-86
2022/02/18 02:34:05;;;;;;;;;;;;;;;12.32;60.84;100716.19;145002;923;1022;-84
2022/02/18 02:36:31;;;;;;;;;;;;;;;12.32;60.91;100716.19;145002;922;1019;-84
2022/02/18 02:38:57;;;;;;;;;;;;;;;12.32;60.99;100721.37;145002;918;1020;-85
2022/02/18 02:41:23;;;;;;;;;;;;;;;12.32;60.94;100715.31;145002;919;1020;-84
2022/02/18 02:43:49;;;;;;;;;;;;;;;12.30;60.82;100724.81;145002;918;1022;-84
2022/02/18 02:46:15;;;;;;;;;;;;;;;12.27;60.98;100732.56;145002;923;1019;-84
2022/02/18 02:48:43;;;;;;;;;;;;;;;12.14;61.10;100757.41;145002;923;1019;-85
2022/02/18 02:51:09;;;;;;;;;;;;;;;11.92;61.78;100764.69;145002;922;1021;-84
2022/02/18 02:53:35;;;;;;;;;;;;;;;12.01;61.67;100776.16;145002;922;1022;-85
2022/02/18 02:56:01;;;;;;;;;;;;;;;12.04;61.62;100777.13;145002;923;1020;-85
2022/02/18 02:58:27;;;;;;;;;;;;;;;12.07;61.52;100781.53;145002;918;1022;-86
2022/02/18 03:00:54;;;;;;;;;;;;;;;12.11;61.66;100780.75;145002;922;1021;-84
2022/02/18 03:03:19;;;;;;;;;;;;;;;12.14;61.44;100794.72;145002;922;1021;-84
2022/02/18 03:05:45;;;;;;;;;;;;;;;12.16;61.18;100799.97;145002;918;1017;-84
2022/02/18 03:08:11;;;;;;;;;;;;;;;12.18;61.13;100805.22;145002;918;1021;-85
2022/02/18 03:10:37;;;;;;;;;;;;;;;12.19;61.35;100815.66;145002;919;1019;-85
2022/02/18 03:13:05;;;;;;;;;;;;;;;12.22;61.13;100815.72;145001;918;2000;-86
2022/02/18 03:15:31;;;;;;;;;;;;;;;12.24;61.17;100827.06;145002;922;1021;-85
2022/02/18 03:17:58;;;;;;;;;;;;;;;12.25;61.32;100836.63;145002;923;1020;-86
2022/02/18 03:20:26;;;;;;;;;;;;;;;12.18;61.65;100841.66;145002;922;1018;-85
2022/02/18 03:22:53;;;;;;;;;;;;;;;12.24;61.61;100849.59;145002;923;1017;-87
2022/02/18 03:25:19;;;;;;;;;;;;;;;12.30;61.49;100847.16;145002;923;1021;-84
2022/02/18 03:27:45;;;;;;;;;;;;;;;12.22;61.30;100840.87;145002;922;1018;-85
2022/02/18 03:30:11;;;;;;;;;;;;;;;12.21;61.71;100834.78;145002;918;1021;-83
2022/02/18 03:32:40;;;;;;;;;;;;;;;12.20;61.79;100842.56;145002;923;1018;-83
2022/02/18 03:35:10;;;;;;;;;;;;;;;12.30;61.80;100845.44;145002;922;1018;-84
2022/02/18 03:37:39;;;;;;;;;;;;;;;12.41;61.59;100853.50;145002;922;1021;-86
2022/02/18 03:40:07;;;;;;;;;;;;;;;12.52;61.52;100861.59;145002;589;1398;-83
2022/02/18 03:42:33;;;;;;;;;;;;;;;12.59;60.98;100860.87;145002;638;1371;-84
2022/02/18 03:44:59;;;;;;;;;;;;;;;12.63;60.94;100867.03;145002;924;1016;-85
2022/02/18 03:47:25;;;;;;;;;;;;;;;12.62;60.61;100875.69;145002;917;1022;-84
2022/02/18 03:49:51;;;;;;;;;;;;;;;12.59;60.45;100870.41;145002;920;1021;-85
2022/02/18 03:52:17;;;;;;;;;;;;;;;12.52;60.51;100870.28;145002;917;1021;-85
2022/02/18 03:54:43;;;;;;;;;;;;;;;12.50;60.32;100879.78;145002;921;1018;-85
2022/02/18 03:57:09;;;;;;;;;;;;;;;12.47;60.31;100877.09;145002;916;1019;-84
2022/02/18 03:59:35;;;;;;;;;;;;;;;12.44;60.28;100879.62;145002;920;1022;-84
2022/02/18 04:02:01;;;;;;;;;;;;;;;12.41;60.51;100881.25;145002;921;1017;-86
2022/02/18 04:04:26;;;;;;;;;;;;;;;12.38;60.34;100894.22;145002;920;1017;-83
2022/02/18 04:06:52;;;;;;;;;;;;;;;12.37;60.18;100890.72;145002;916;1018;-84
2022/02/18 04:09:18;;;;;;;;;;;;;;;12.34;60.45;100888.94;145002;921;1024;-85
2022/02/18 04:11:45;;;;;;;;;;;;;;;12.32;60.47;100893.19;145002;920;1019;-84
2022/02/18 04:14:11;;;;;;;;;;;;;;;12.27;60.95;100901.75;145002;924;1021;-83
2022/02/18 04:16:39;;;;;;;;;;;;;;;12.27;61.12;100906.94;145002;921;1018;-84
2022/02/18 04:19:06;;;;;;;;;;;;;;;12.10;60.86;100909.09;145001;924;2000;-84
2022/02/18 04:21:32;;;;;;;;;;;;;;;12.21;61.53;100904.19;145002;917;1021;-85
2022/02/18 04:23:59;;;;;;;;;;;;;;;11.94;60.80;100916.47;145002;925;1021;-86
2022/02/18 04:26:25;;;;;;;;;;;;;;;12.04;62.21;100927.16;145002;921;1017;-84
2022/02/18 04:28:51;;;;;;;;;;;;;;;11.92;61.71;100914.69;145002;924;1016;-85
2022/02/18 04:31:19;;;;;;;;;;;;;;;11.75;62.67;100915.06;145002;920;1016;-85
2022/02/18 04:33:50;;;;;;;;;;;;;;;11.69;62.89;100921.81;145002;925;1018;-85
2022/02/18 04:36:18;;;;;;;;;;;;;;;11.57;61.88;100925.81;145002;920;1017;-85
2022/02/18 04:38:45;;;;;;;;;;;;;;;11.84;63.03;100942.19;145002;924;1016;-87
2022/02/18 04:41:11;;;;;;;;;;;;;;;11.68;62.86;100953.88;145002;921;1020;-85
2022/02/18 04:43:38;;;;;;;;;;;;;;;11.98;62.56;100965.16;145002;924;1023;-84
2022/02/18 04:46:05;;;;;;;;;;;;;;;11.98;62.28;100959.09;145002;921;1018;-85
2022/02/18 04:48:31;;;;;;;;;;;;;;;11.88;62.33;100962.22;145002;925;1023;-84
2022/02/18 04:50:57;;;;;;;;;;;;;;;11.69;61.31;100969.53;145002;916;1022;-85
2022/02/18 04:53:24;;;;;;;;;;;;;;;11.16;61.65;100964.44;145002;924;1016;-85
2022/02/18 04:55:49;;;;;;;;;;;;;;;11.17;62.99;100963.63;145002;921;1022;-86
2022/02/18 04:58:15;;;;;;;;;;;;;;;11.33;62.20;100967.56;145002;920;1018;-86
2022/02/18 05:00:41;;;;;;;;;;;;;;;11.05;62.03;100976.22;145002;916;1017;-86
2022/02/18 05:03:07;;;;;;;;;;;;;;;11.33;62.99;100985.78;145002;921;1021;-85
2022/02/18 05:05:33;;;;;;;;;;;;;;;11.23;61.82;100991.50;145002;920;1017;-85
2022/02/18 05:08:01;;;;;;;;;;;;;;;11.08;62.53;100994.50;145002;920;1018;-84
2022/02/18 05:10:30;;;;;;;;;;;;;;;11.05;63.05;100999.59;145002;921;1017;-86
2022/02/18 05:12:57;;;;;;;;;;;;;;;11.29;62.90;101001.22;145002;924;1018;-85
2022/02/18 05:15:23;;;;;;;;;;;;;;;11.53;62.85;101007.19;145002;920;1023;-84
2022/02/18 05:17:49;;;;;;;;;;;;;;;11.74;61.96;101012.16;145002;925;1020;-85
2022/02/18 05:20:16;;;;;;;;;;;;;;;11.66;61.71;101020.53;145002;920;1016;-86
2022/02/18 05:22:42;;;;;;;;;;;;;;;11.76;61.92;101020.00;145002;925;1017;-85
2022/02/18 05:25:09;;;;;;;;;;;;;;;11.71;61.82;101018.97;145002;920;1017;-86
2022/02/18 05:27:47;;;;;;;;;;;;;;;11.76;62.11;101014.78;145002;924;1018;-87
2022/02/18 05:30:14;;;;;;;;;;;;;;;11.94;61.85;101020.53;145002;921;1017;-84
2022/02/18 05:32:40;;;;;;;;;;;;;;;11.88;60.95;101025.56;145002;925;1021;-85
2022/02/18 05:35:06;;;;;;;;;;;;;;;11.93;61.70;101036.13;145002;916;1017;-85
2022/02/18 05:37:32;;;;;;;;;;;;;;;11.71;61.13;101048.47;145002;925;1021;-85
2022/02/18 05:39:58;;;;;;;;;;;;;;;11.75;62.02;101046.81;145002;917;1017;-85
2022/02/18 05:42:24;;;;;;;;;;;;;;;11.85;61.97;101056.69;145001;924;2000;-86
2022/02/18 05:44:51;;;;;;;;;;;;;;;11.93;61.63;101064.72;145002;921;1020;-89
2022/02/18 05:47:17;;;;;;;;;;;;;;;11.72;61.14;101077.94;145002;925;1020;-85
2022/02/18 05:49:45;;;;;;;;;;;;;;;11.87;62.17;101095.75;145002;920;1021;-84
2022/02/18 05:52:11;;;;;;;;;;;;;;;11.97;61.79;101111.69;145002;924;1020;-83
2022/02/18 05:54:36;;;;;;;;;;;;;;;12.02;61.32;101109.25;145002;917;1018;-82
2022/02/18 05:57:03;;;;;;;;;;;;;;;11.77;61.34;101123.16;145002;920;1017;-84
2022/02/18 05:59:29;;;;;;;;;;;;;;;11.96;61.72;101122.06;145002;920;1016;-82
2022/02/18 06:01:56;;;;;;;;;;;;;;;12.04;61.66;101137.91;145002;921;1020;-88
2022/02/18 06:04:22;;;;;;;;;;;;;;;12.16;61.41;101146.09;145002;921;1020;-86
2022/02/18 06:06:50;;;;;;;;;;;;;;;12.26;61.33;101147.25;145002;921;1017;-83
2022/02/18 06:09:17;;;;;;;;;;;;;;;12.28;61.23;101159.47;145002;921;1020;-84
2022/02/18 06:11:42;;;;;;;;;;;;;;;12.42;60.85;101165.06;145001;925;2000;-83
2022/02/18 06:14:08;;;;;;;;;;;;;;;12.54;60.75;101161.97;145002;916;1017;-84
2022/02/18 06:16:34;;;;;;;;;;;;;;;12.67;60.47;101160.59;145002;921;1019;-84
2022/02/18 06:19:03;;;;;;;;;;;;;;;12.78;60.23;101163.50;145001;916;2000;-83
2022/02/18 06:21:31;;;;;;;;;;;;;;;12.87;60.18;101159.41;145002;925;1020;-83
2022/02/18 06:23:57;;;;;;;;;;;;;;;12.94;60.12;101164.81;145002;921;1021;-84
2022/02/18 06:26:24;;;;;;;;;;;;;;;12.86;60.20;101172.41;145001;924;2000;-85
2022/02/18 06:28:52;;;;;;;;;;;;;;;12.69;59.61;101165.00;145002;920;1023;-84
2022/02/18 06:31:39;;;;;;;;;;;;;;;12.77;60.77;101178.22;145002;618;1389;-84
2022/02/18 06:34:06;;;;;;;;;;;;;;;12.97;60.99;101180.53;145002;630;1286;-85
2022/02/18 06:36:34;;;;;;;;;;;;;;;12.89;61.42;101172.50;145002;925;1020;-86
2022/02/18 06:39:01;;;;;;;;;;;;;;;12.81;59.58;101163.59;145002;921;1021;-84
2022/02/18 06:41:27;;;;;;;;;;;;;;;12.78;59.72;101173.91;145002;924;1020;-85
2022/02/18 06:43:53;;;;;;;;;;;;;;;12.55;60.15;101181.97;145002;921;1020;-81
2022/02/18 06:46:19;;;;;;;;;;;;;;;12.77;61.56;101200.81;145002;921;1017;-85
2022/02/18 06:48:45;;;;;;;;;;;;;;;12.81;59.74;101200.06;145002;920;1020;-86
2022/02/18 06:51:11;;;;;;;;;;;;;;;12.61;60.94;101212.50;145002;921;1020;-85
2022/02/18 06:53:37;;;;;;;;;;;;;;;12.63;60.09;101219.53;145002;921;1021;-84
2022/02/18 06:56:05;;;;;;;;;;;;;;;12.52;60.59;101224.41;145002;925;1018;-84
2022/02/18 06:58:38;;;;;;;;;;;;;;;12.89;61.43;101229.81;145002;921;1017;-86
2022/02/18 07:01:04;;;;;;;;;;;;;;;13.20;60.73;101233.25;145002;925;1018;-86
2022/02/18 07:03:30;;;;;;;;;;;;;;;13.46;58.59;101238.31;145002;920;1020;-84
2022/02/18 07:06:01;;;;;;;;;;;;;;;13.64;58.23;101244.03;145002;921;1017;-85
2022/02/18 07:08:27;;;;;;;;;;;;;;;13.90;58.90;101247.31;145002;921;1020;-85
2022/02/18 07:10:53;;;;;;;;;;;;;;;13.97;56.57;101245.72;145002;924;1021;-87
2022/02/18 07:13:19;;;;;;;;;;;;;;;14.00;59.24;101257.94;145002;921;1020;-83
2022/02/18 07:15:52;;;;;;;;;;;;;;;14.20;59.40;101261.03;145002;496;1344;-85
2022/02/18 07:18:20;;;;;;;;;;;;;;;14.25;57.00;101264.63;145002;505;1391;-84
2022/02/18 07:20:47;;;;;;;;;;;;;;;14.56;59.69;101274.06;145002;925;1017;-85
2022/02/18 07:23:16;;;;;;;;;;;;;;;14.84;56.50;101277.28;145002;921;1017;-85
2022/02/18 07:25:43;;;;;;;;;;;;;;;14.97;57.83;101281.03;145002;924;1018;-90
2022/02/18 07:28:17;;;;;;;;;;;;;;;15.25;58.95;101285.09;145002;920;1019;-86
2022/02/18 07:30:43;;;;;;;;;;;;;;;15.48;57.72;101280.31;145002;925;1020;-83
2022/02/18 07:33:10;;;;;;;;;;;;;;;15.76;58.08;101291.28;145002;920;1017;-85
2022/02/18 07:35:38;;;;;;;;;;;;;;;16.03;58.00;101297.87;145002;925;1016;-84
2022/02/18 07:38:06;;;;;;;;;;;;;;;16.27;58.56;101302.63;145002;921;1020;-84
2022/02/18 07:40:34;;;;;;;;;;;;;;;16.49;57.75;101311.69;145002;924;1017;-86
2022/02/18 07:43:00;;;;;;;;;;;;;;;16.72;58.22;101305.91;145002;921;1021;-84
2022/02/18 07:45:26;;;;;;;;;;;;;;;16.84;57.34;101312.19;145001;925;2000;-86
2022/02/18 07:47:56;;;;;;;;;;;;;;;16.86;50.71;101305.28;145002;920;1020;-87
2022/02/18 07:50:24;;;;;;;;;;;;;;;16.91;56.41;101312.31;145002;925;1019;-85
2022/02/18 07:52:50;;;;;;;;;;;;;;;16.92;54.91;101314.94;145002;922;1018;-85
2022/02/18 07:55:16;;;;;;;;;;;;;;;16.84;51.20;101308.69;145002;920;1022;-87
2022/02/18 07:57:42;;;;;;;;;;;;;;;16.61;52.54;101306.62;145002;921;1019;-84
2022/02/18 08:00:15;;;;;;;;;;;;;;;16.47;50.12;101300.31;145002;925;1019;-87
2022/02/18 08:02:42;;;;;;;;;;;;;;;16.32;52.04;101301.84;145002;921;1018;-86
2022/02/18 08:05:08;;;;;;;;;;;;;;;16.37;51.43;101301.03;145001;925;2000;-88
2022/02/18 08:07:38;;;;;;;;;;;;;;;16.10;50.55;101310.22;145002;921;1016;-84
2022/02/18 08:10:05;;;;;;;;;;;;;;;16.23;51.12;101313.94;145002;926;1021;-85
2022/02/18 08:12:31;;;;;;;;;;;;;;;16.35;50.69;101294.87;145002;921;1020;-87
2022/02/18 08:14:58;;;;;;;;;;;;;;;16.46;52.38;101302.06;145002;926;1018;-85
2022/02/18 08:17:26;;;;;;;;;;;;;;;16.69;53.07;101315.50;145002;922;1022;-86
2022/02/18 08:20:02;;;;;;;;;;;;;;;16.93;51.76;101308.84;145002;925;1019;-85
2022/02/18 08:22:37;;;;;;;;;;;;;;;16.72;47.84;101312.03;145002;921;1015;-87
2022/02/18 08:25:12;;;;;;;;;;;;;;;16.77;44.86;101307.72;145002;924;1016;-86
2022/02/18 08:27:42;;;;;;;;;;;;;;;16.64;46.60;101322.41;145002;921;1017;-85
2022/02/18 08:30:20;;;;;;;;;;;;;;;16.82;45.39;101310.41;145002;925;1017;-85
2022/02/18 08:32:59;;;;;;;;;;;;;;;17.09;48.54;101323.03;145002;602;1387;-85
2022/02/18 08:35:27;;;;;;;;;;;;;;;17.28;45.62;101315.41;145002;365;1253;-87
2022/02/18 08:37:55;;;;;;;;;;;;;;;16.94;43.43;101326.38;145002;923;1021;-87
2022/02/18 08:40:22;;;;;;;;;;;;;;;17.21;44.59;101317.94;145002;922;1016;-85
2022/02/18 08:42:49;;;;;;;;;;;;;;;17.09;43.39;101319.53;145002;923;1020;-84
2022/02/18 08:45:15;;;;;;;;;;;;;;;17.04;42.77;101322.13;145002;925;1017;-87
2022/02/18 08:47:42;;;;;;;;;;;;;;;17.15;45.10;101333.62;145002;922;1017;-86
2022/02/18 08:50:10;;;;;;;;;;;;;;;17.43;45.24;101335.69;145002;923;1018;-86
2022/02/18 08:52:37;;;;;;;;;;;;;;;17.08;42.95;101336.13;145002;923;1020;-85
2022/02/18 08:55:07;;;;;;;;;;;;;;;16.81;43.41;101327.00;145002;922;1020;-85
2022/02/18 08:57:34;;;;;;;;;;;;;;;16.77;43.82;101341.81;145002;923;1016;-84
2022/02/18 09:00:00;;;;;;;;;;;;;;;16.57;43.91;101338.87;145002;923;1017;-87
2022/02/18 09:02:29;;;;;;;;;;;;;;;16.68;45.08;101347.78;145003;923;1017;-84
2022/02/18 09:04:59;;;;;;;;;;;;;;;16.98;46.66;101358.75;145003;922;1021;-83
2022/02/18 09:07:35;;;;;;;;;;;;;;;17.09;43.95;101366.75;145003;923;1019;-84
2022/02/18 09:12:37;;;;;;;;;;;;;;;17.12;42.59;101374.69;145002;930;2000;-88
2022/02/18 09:15:13;;;;;;;;;;;;;;;17.06;43.81;101387.69;145003;924;1021;-88
2022/02/18 09:17:40;;;;;;;;;;;;;;;16.91;41.69;101380.47;145003;922;1019;-88
2022/02/18 09:20:07;;;;;;;;;;;;;;;17.23;41.78;101378.31;145003;923;1019;-86
2022/02/18 09:22:44;;;;;;;;;;;;;;;17.36;41.04;101382.84;145003;922;1020;-87
2022/02/18 09:25:10;;;;;;;;;;;;;;;17.21;40.00;101383.53;145003;922;1021;-87
2022/02/18 09:27:36;;;;;;;;;;;;;;;16.96;40.57;101371.84;145003;922;1021;-84
2022/02/18 09:30:10;;;;;;;;;;;;;;;17.11;40.58;101367.66;145002;922;1019;-87
2022/02/18 09:32:39;;;;;;;;;;;;;;;17.32;40.72;101360.06;145002;922;1016;-86
2022/02/18 09:35:09;;;;;;;;;;;;;;;17.21;39.66;101373.06;145002;617;1303;-84
2022/02/18 09:37:37;;;;;;;;;;;;;;;16.98;39.67;101359.63;145002;923;1015;-86
2022/02/18 09:40:07;;;;;;;;;;;;;;;17.14;39.65;101365.94;145002;923;1019;-87
2022/02/18 09:42:35;;;;;;;;;;;;;;;16.92;38.72;101354.28;145002;922;1017;-88
2022/02/18 09:45:03;;;;;;;;;;;;;;;16.98;40.24;101354.38;145002;923;1021;-88
2022/02/18 09:47:31;;;;;;;;;;;;;;;17.11;38.92;101357.16;145002;922;1022;-87
2022/02/18 09:49:57;;;;;;;;;;;;;;;17.00;38.46;101355.25;145002;922;1021;-86
2022/02/18 09:52:24;;;;;;;;;;;;;;;17.12;39.66;101353.69;145002;923;1020;-86
2022/02/18 09:54:50;;;;;;;;;;;;;;;17.08;38.76;101352.75;145002;922;1018;-86
2022/02/18 09:57:19;;;;;;;;;;;;;;;17.03;39.43;101349.19;145002;922;1022;-85
2022/02/18 09:59:46;;;;;;;;;;;;;;;16.96;38.72;101350.84;145002;923;1017;-90
2022/02/18 10:02:13;;;;;;;;;;;;;;;16.89;38.24;101349.00;145002;922;1019;-86
2022/02/18 10:04:40;;;;;;;;;;;;;;;16.89;38.80;101359.47;145002;923;1018;-86
2022/02/18 10:07:08;;;;;;;;;;;;;;;16.95;38.66;101353.47;145001;923;2000;-86
2022/02/18 10:09:45;;;;;;;;;;;;;;;17.08;38.86;101368.47;145002;923;1017;-89
2022/02/18 10:12:12;;;;;;;;;;;;;;;17.05;37.83;101378.94;145002;922;1018;-87
2022/02/18 10:14:58;;;;;;;;;;;;;;;17.10;37.31;101387.78;145002;923;1018;-88
2022/02/18 10:17:34;;;;;;;;;;;;;;;17.32;36.50;101391.56;145002;923;1020;-85
2022/02/18 10:20:00;;;;;;;;;;;;;;;17.67;37.14;101395.44;145002;923;1018;-87
2022/02/18 10:22:38;;;;;;;;;;;;;;;;;;;;;
2022/02/18 10:25:07;;;;;;;;;;;;;;;17.87;36.76;101396.53;145002;922;1020;-87
2022/02/18 10:27:47;;;;;;;;;;;;;;;18.05;35.71;101374.00;145002;924;1020;-86
2022/02/18 10:30:26;;;;;;;;;;;;;;;18.12;35.61;101388.97;145002;925;1019;-88
2022/02/18 10:32:53;;;;;;;;;;;;;;;18.16;36.27;101374.97;145002;924;1020;-89
2022/02/18 10:35:22;;;;;;;;;;;;;;;18.26;36.24;101375.91;145002;924;1018;-89
2022/02/18 10:37:51;;;;;;;;;;;;;;;18.35;35.80;101378.63;145002;925;1017;-85
2022/02/18 10:40:20;;;;;;;;;;;;;;;18.54;37.73;101381.41;145002;924;1023;-88
2022/02/18 10:42:52;;;;;;;;;;;;;;;18.75;37.31;101373.66;145002;924;1018;-88
2022/02/18 10:45:33;;;;;;;;;;;;;;;18.77;36.20;101371.94;145002;925;1020;-90
2022/02/18 10:48:12;;;;;;;;;;;;;;;18.78;35.65;101370.19;145002;925;1022;-87
2022/02/18 10:55:54;;;;;;;;;;;;;;;19.34;37.53;101376.63;145002;614;1388;-87
2022/02/18 10:58:36;;;;;;;;;;;;;;;19.40;34.20;101372.25;145002;922;1016;-89
2022/02/18 11:01:22;;;;;;;;;;;;;;;19.16;33.90;101373.03;145002;672;1440;-88
2022/02/18 11:03:50;;;;;;;;;;;;;;;19.05;34.54;101381.78;145002;923;1020;-88
2022/02/18 11:06:28;;;;;;;;;;;;;;;18.99;33.34;101382.59;145002;924;1017;-87
2022/02/18 11:09:03;;;;;;;;;;;;;;;18.99;33.09;101364.19;145002;922;1018;-89
2022/02/18 11:11:33;;;;;;;;;;;;;;;19.09;33.90;101370.38;145002;923;1020;-88
2022/02/18 11:14:10;;;;;;;;;;;;;;;19.32;34.84;101363.47;145002;923;1017;-87
2022/02/18 11:16:38;;;;;;;;;;;;;;;19.24;32.99;101362.56;145002;922;1019;-87
2022/02/18 11:27:04;;;;;;;;;;;;;;;19.32;29.22;101367.84;145002;671;1327;-88
2022/02/18 11:29:35;;;;;;;;;;;;;;;19.10;29.42;101357.22;145002;919;1018;-88
2022/02/18 11:32:19;;;;;;;;;;;;;;;19.09;28.68;101358.13;145002;919;1018;-88
2022/02/18 11:34:54;;;;;;;;;;;;;;;19.26;28.86;101355.53;145002;938;1017;-88
2022/02/18 11:37:49;;;;;;;;;;;;;;;19.59;32.99;101361.81;145002;919;1018;-90
2022/02/18 11:45:38;;;;;;;;;;;;;;;18.86;27.90;101355.34;145002;874;1124;-88
2022/02/18 11:48:10;;;;;;;;;;;;;;;19.28;27.39;101353.81;145002;926;1016;-87
2022/02/18 11:50:42;;;;;;;;;;;;;;;19.46;27.91;101357.38;145002;923;1016;-87
2022/02/18 11:53:09;;;;;;;;;;;;;;;19.46;28.19;101347.72;145002;927;1017;-87
2022/02/18 11:58:21;;;;;;;;;;;;;;;19.14;26.85;101342.34;145002;798;1194;-86
2022/02/18 12:03:27;;;;;;;;;;;;;;;19.61;27.40;101356.53;145001;565;2000;-89
2022/02/18 12:06:12;;;;;;;;;;;;;;;19.91;30.68;101355.75;145002;925;1017;-86
2022/02/18 12:08:52;;;;;;;;;;;;;;;19.92;26.58;101342.59;145002;594;1494;-89
2022/02/18 12:11:20;;;;;;;;;;;;;;;19.96;30.08;101345.22;145002;925;1016;-89
2022/02/18 12:13:54;;;;;;;;;;;;;;;20.25;30.71;101345.22;145002;925;1016;-89
2022/02/18 12:16:27;;;;;;;;;;;;;;;19.96;25.85;101332.03;145002;924;1017;-89
2022/02/18 12:19:16;;;;;;;;;;;;;;;19.60;26.19;101337.22;145002;925;1021;-89
2022/02/18 12:22:10;;;;;;;;;;;;;;;19.47;26.80;101340.69;145002;925;1016;-88
2022/02/18 12:24:44;;;;;;;;;;;;;;;19.36;26.64;101333.66;145002;921;1018;-86
2022/02/18 12:27:41;;;;;;;;;;;;;;;19.42;26.92;101337.19;145002;921;1023;-89
2022/02/18 12:30:29;;;;;;;;;;;;;;;19.55;27.83;101331.97;145002;926;1017;-86
2022/02/18 12:33:04;;;;;;;;;;;;;;;19.26;27.35;101323.09;145002;921;1023;-87
2022/02/18 12:35:39;;;;;;;;;;;;;;;19.30;27.57;101327.50;145002;921;1022;-88
2022/02/18 12:38:07;;;;;;;;;;;;;;;19.01;28.37;101320.38;145002;920;1020;-86
2022/02/18 12:43:19;;;;;;;;;;;;;;;19.34;28.61;101331.87;145001;566;2000;-88
2022/02/18 12:45:51;;;;;;;;;;;;;;;19.32;28.63;101325.75;145002;922;1022;-89
2022/02/18 12:48:38;;;;;;;;;;;;;;;19.37;28.80;101324.00;145002;918;1017;-88
2022/02/18 12:51:23;;;;;;;;;;;;;;;19.63;29.79;101326.72;145002;923;1020;-86
2022/02/18 12:53:53;;;;;;;;;;;;;;;19.84;31.14;101320.63;145002;918;1017;-86
2022/02/18 12:56:28;;;;;;;;;;;;;;;19.86;29.97;101310.09;145002;923;1021;-87
2022/02/18 12:58:56;;;;;;;;;;;;;;;19.87;28.41;101307.44;145002;919;1018;-89
2022/02/18 13:01:24;;;;;;;;;;;;;;;19.97;29.46;101310.09;145002;921;1017;-88
2022/02/18 13:03:50;;;;;;;;;;;;;;;19.94;30.93;101313.59;145002;918;1020;-86
2022/02/18 13:06:16;;;;;;;;;;;;;;;19.68;29.43;101308.28;145002;923;1019;-86
2022/02/18 13:08:44;;;;;;;;;;;;;;;19.58;28.31;101305.63;145002;918;1022;-85
2022/02/18 13:11:14;;;;;;;;;;;;;;;19.34;28.68;101303.81;145002;922;1021;-90
2022/02/18 13:13:41;;;;;;;;;;;;;;;19.53;31.34;101311.75;145002;919;1017;-88
2022/02/18 13:16:09;;;;;;;;;;;;;;;19.56;30.44;101310.00;145002;922;1019;-87
2022/02/18 13:18:36;;;;;;;;;;;;;;;19.49;28.99;101300.34;145002;919;1019;-88
2022/02/18 13:21:05;;;;;;;;;;;;;;;19.52;29.48;101304.75;145002;923;1020;-86
2022/02/18 13:23:35;;;;;;;;;;;;;;;19.65;29.76;101292.47;145002;918;1020;-85
2022/02/18 13:26:06;;;;;;;;;;;;;;;19.47;29.61;101295.94;145002;922;1017;-87